sensor_id;sensor_type;location;lat;lon;timestamp;P1;durP1;ratioP1;P2;durP2;ratioP2
21833;SDS011;11079;51.092;3.458;2022-12-18T00:01:20;88.67;;;36.93;;
21833;SDS011;11079;51.092;3.458;2022-12-18T00:03:50;76.07;;;36.73;;
21833;SDS011;11079;51.092;3.458;2022-12-18T00:06:18;87.60;;;37.27;;
21833;SDS011;11079;51.092;3.458;2022-12-18T00:08:44;74.20;;;36.00;;
21833;SDS011;11079;51.092;3.458;2022-12-18T00:11:11;80.60;;;38.33;;
21833;SDS011;11079;51.092;3.458;2022-12-18T00:13:38;72.90;;;36.37;;
21833;SDS011;11079;51.092;3.458;2022-12-18T00:16:05;73.27;;;36.53;;
21833;SDS011;11079;51.092;3.458;2022-12-18T00:18:33;73.27;;;37.63;;
21833;SDS011;11079;51.092;3.458;2022-12-18T00:20:59;77.63;;;37.90;;
21833;SDS011;11079;51.092;3.458;2022-12-18T00:23:27;74.30;;;38.63;;
21833;SDS011;11079;51.092;3.458;2022-12-18T00:25:53;74.30;;;39.50;;
21833;SDS011;11079;51.092;3.458;2022-12-18T00:28:18;83.80;;;40.30;;
21833;SDS011;11079;51.092;3.458;2022-12-18T00:30:44;72.13;;;41.33;;
21833;SDS011;11079;51.092;3.458;2022-12-18T00:33:10;71.90;;;37.63;;
21833;SDS011;11079;51.092;3.458;2022-12-18T00:35:35;72.00;;;37.60;;
21833;SDS011;11079;51.092;3.458;2022-12-18T00:38:01;75.00;;;36.07;;
21833;SDS011;11079;51.092;3.458;2022-12-18T00:40:27;77.27;;;37.10;;
21833;SDS011;11079;51.092;3.458;2022-12-18T00:42:52;73.43;;;38.13;;
21833;SDS011;11079;51.092;3.458;2022-12-18T00:45:21;71.60;;;36.63;;
21833;SDS011;11079;51.092;3.458;2022-12-18T00:47:48;76.20;;;36.77;;
21833;SDS011;11079;51.092;3.458;2022-12-18T00:50:14;73.93;;;36.93;;
21833;SDS011;11079;51.092;3.458;2022-12-18T00:52:40;72.53;;;36.33;;
21833;SDS011;11079;51.092;3.458;2022-12-18T00:55:05;68.20;;;35.70;;
21833;SDS011;11079;51.092;3.458;2022-12-18T00:57:31;72.83;;;36.30;;
21833;SDS011;11079;51.092;3.458;2022-12-18T00:59:57;70.60;;;35.07;;
21833;SDS011;11079;51.092;3.458;2022-12-18T01:02:23;67.77;;;33.67;;
21833;SDS011;11079;51.092;3.458;2022-12-18T01:04:48;67.20;;;36.57;;
21833;SDS011;11079;51.092;3.458;2022-12-18T01:07:14;66.67;;;34.40;;
21833;SDS011;11079;51.092;3.458;2022-12-18T01:09:39;68.83;;;34.97;;
21833;SDS011;11079;51.092;3.458;2022-12-18T01:12:05;67.00;;;35.80;;
21833;SDS011;11079;51.092;3.458;2022-12-18T01:14:31;69.50;;;34.23;;
21833;SDS011;11079;51.092;3.458;2022-12-18T01:16:57;63.07;;;32.93;;
21833;SDS011;11079;51.092;3.458;2022-12-18T01:19:22;69.63;;;33.07;;
21833;SDS011;11079;51.092;3.458;2022-12-18T01:21:48;65.67;;;33.40;;
21833;SDS011;11079;51.092;3.458;2022-12-18T01:24:14;71.23;;;34.07;;
21833;SDS011;11079;51.092;3.458;2022-12-18T01:26:40;67.17;;;33.20;;
21833;SDS011;11079;51.092;3.458;2022-12-18T01:29:05;65.13;;;32.73;;
21833;SDS011;11079;51.092;3.458;2022-12-18T01:31:32;61.27;;;32.83;;
21833;SDS011;11079;51.092;3.458;2022-12-18T01:34:00;57.33;;;31.70;;
21833;SDS011;11079;51.092;3.458;2022-12-18T01:36:28;56.53;;;31.57;;
21833;SDS011;11079;51.092;3.458;2022-12-18T01:38:56;59.57;;;31.73;;
21833;SDS011;11079;51.092;3.458;2022-12-18T01:41:25;59.87;;;31.97;;
21833;SDS011;11079;51.092;3.458;2022-12-18T01:47:32;59.90;;;32.03;;
21833;SDS011;11079;51.092;3.458;2022-12-18T01:49:59;73.83;;;33.30;;
21833;SDS011;11079;51.092;3.458;2022-12-18T01:52:47;64.60;;;29.63;;
21833;SDS011;11079;51.092;3.458;2022-12-18T01:55:19;56.47;;;29.30;;
21833;SDS011;11079;51.092;3.458;2022-12-18T01:57:47;59.80;;;31.50;;
21833;SDS011;11079;51.092;3.458;2022-12-18T02:00:15;56.50;;;30.63;;
21833;SDS011;11079;51.092;3.458;2022-12-18T02:02:45;58.17;;;30.60;;
21833;SDS011;11079;51.092;3.458;2022-12-18T02:05:12;60.30;;;32.40;;
21833;SDS011;11079;51.092;3.458;2022-12-18T02:13:04;60.40;;;31.33;;
21833;SDS011;11079;51.092;3.458;2022-12-18T02:18:12;61.77;;;31.50;;
21833;SDS011;11079;51.092;3.458;2022-12-18T02:20:45;62.27;;;33.03;;
21833;SDS011;11079;51.092;3.458;2022-12-18T02:26:02;62.13;;;33.33;;
21833;SDS011;11079;51.092;3.458;2022-12-18T02:28:52;69.13;;;34.57;;
21833;SDS011;11079;51.092;3.458;2022-12-18T02:31:25;67.33;;;33.30;;
21833;SDS011;11079;51.092;3.458;2022-12-18T02:33:54;61.50;;;31.33;;
21833;SDS011;11079;51.092;3.458;2022-12-18T02:36:23;69.23;;;32.33;;
21833;SDS011;11079;51.092;3.458;2022-12-18T02:38:50;65.63;;;34.43;;
21833;SDS011;11079;51.092;3.458;2022-12-18T02:41:17;63.97;;;33.73;;
21833;SDS011;11079;51.092;3.458;2022-12-18T02:43:47;64.60;;;32.63;;
21833;SDS011;11079;51.092;3.458;2022-12-18T02:46:23;65.27;;;33.33;;
21833;SDS011;11079;51.092;3.458;2022-12-18T02:49:04;59.20;;;30.97;;
21833;SDS011;11079;51.092;3.458;2022-12-18T02:51:53;58.97;;;31.90;;
21833;SDS011;11079;51.092;3.458;2022-12-18T02:54:32;53.43;;;30.27;;
21833;SDS011;11079;51.092;3.458;2022-12-18T02:57:07;57.43;;;31.83;;
21833;SDS011;11079;51.092;3.458;2022-12-18T02:59:41;59.27;;;32.37;;
21833;SDS011;11079;51.092;3.458;2022-12-18T03:05:40;55.30;;;31.47;;
21833;SDS011;11079;51.092;3.458;2022-12-18T03:08:24;64.97;;;32.47;;
21833;SDS011;11079;51.092;3.458;2022-12-18T03:11:03;62.67;;;34.27;;
21833;SDS011;11079;51.092;3.458;2022-12-18T03:13:32;65.77;;;34.63;;
21833;SDS011;11079;51.092;3.458;2022-12-18T03:16:11;62.23;;;33.77;;
21833;SDS011;11079;51.092;3.458;2022-12-18T03:21:15;61.43;;;33.27;;
21833;SDS011;11079;51.092;3.458;2022-12-18T03:23:47;63.60;;;34.13;;
21833;SDS011;11079;51.092;3.458;2022-12-18T03:26:16;63.20;;;34.47;;
21833;SDS011;11079;51.092;3.458;2022-12-18T03:28:48;67.00;;;35.87;;
21833;SDS011;11079;51.092;3.458;2022-12-18T03:31:17;70.77;;;34.93;;
21833;SDS011;11079;51.092;3.458;2022-12-18T03:33:56;65.53;;;35.23;;
21833;SDS011;11079;51.092;3.458;2022-12-18T03:36:24;73.50;;;37.67;;
21833;SDS011;11079;51.092;3.458;2022-12-18T03:38:50;71.67;;;39.77;;
21833;SDS011;11079;51.092;3.458;2022-12-18T03:46:38;69.33;;;37.83;;
21833;SDS011;11079;51.092;3.458;2022-12-18T03:51:52;79.90;;;39.87;;
21833;SDS011;11079;51.092;3.458;2022-12-18T03:54:26;77.90;;;38.90;;
21833;SDS011;11079;51.092;3.458;2022-12-18T03:56:57;79.10;;;40.23;;
21833;SDS011;11079;51.092;3.458;2022-12-18T03:59:27;73.93;;;39.37;;
21833;SDS011;11079;51.092;3.458;2022-12-18T04:01:54;72.07;;;39.63;;
21833;SDS011;11079;51.092;3.458;2022-12-18T04:04:23;77.90;;;39.47;;
21833;SDS011;11079;51.092;3.458;2022-12-18T04:06:50;85.60;;;41.23;;
21833;SDS011;11079;51.092;3.458;2022-12-18T04:09:17;81.47;;;41.60;;
21833;SDS011;11079;51.092;3.458;2022-12-18T04:11:43;69.93;;;38.23;;
21833;SDS011;11079;51.092;3.458;2022-12-18T04:14:11;75.90;;;39.53;;
21833;SDS011;11079;51.092;3.458;2022-12-18T04:16:36;80.30;;;39.60;;
21833;SDS011;11079;51.092;3.458;2022-12-18T04:19:02;70.00;;;34.83;;
21833;SDS011;11079;51.092;3.458;2022-12-18T04:21:28;70.37;;;37.73;;
21833;SDS011;11079;51.092;3.458;2022-12-18T04:23:54;69.00;;;36.73;;
21833;SDS011;11079;51.092;3.458;2022-12-18T04:26:20;69.57;;;35.10;;
21833;SDS011;11079;51.092;3.458;2022-12-18T04:28:45;69.00;;;36.67;;
21833;SDS011;11079;51.092;3.458;2022-12-18T04:31:12;69.73;;;35.80;;
21833;SDS011;11079;51.092;3.458;2022-12-18T04:33:38;69.37;;;35.47;;
21833;SDS011;11079;51.092;3.458;2022-12-18T04:36:04;71.53;;;36.20;;
21833;SDS011;11079;51.092;3.458;2022-12-18T04:38:29;65.73;;;35.97;;
21833;SDS011;11079;51.092;3.458;2022-12-18T04:40:55;68.37;;;34.07;;
21833;SDS011;11079;51.092;3.458;2022-12-18T04:43:21;76.17;;;36.57;;
21833;SDS011;11079;51.092;3.458;2022-12-18T04:45:46;70.63;;;35.50;;
21833;SDS011;11079;51.092;3.458;2022-12-18T04:48:12;63.27;;;33.93;;
21833;SDS011;11079;51.092;3.458;2022-12-18T04:50:38;63.80;;;33.93;;
21833;SDS011;11079;51.092;3.458;2022-12-18T04:53:03;72.37;;;34.43;;
21833;SDS011;11079;51.092;3.458;2022-12-18T04:55:29;64.87;;;35.43;;
21833;SDS011;11079;51.092;3.458;2022-12-18T04:57:55;58.20;;;31.87;;
21833;SDS011;11079;51.092;3.458;2022-12-18T05:00:20;84.87;;;42.33;;
21833;SDS011;11079;51.092;3.458;2022-12-18T05:02:46;73.33;;;37.00;;
21833;SDS011;11079;51.092;3.458;2022-12-18T05:05:12;60.97;;;31.83;;
21833;SDS011;11079;51.092;3.458;2022-12-18T05:07:37;68.80;;;32.27;;
21833;SDS011;11079;51.092;3.458;2022-12-18T05:10:03;68.07;;;32.27;;
21833;SDS011;11079;51.092;3.458;2022-12-18T05:12:30;62.80;;;31.63;;
21833;SDS011;11079;51.092;3.458;2022-12-18T05:14:56;57.97;;;29.47;;
21833;SDS011;11079;51.092;3.458;2022-12-18T05:17:22;60.73;;;30.43;;
21833;SDS011;11079;51.092;3.458;2022-12-18T05:19:47;58.03;;;30.70;;
21833;SDS011;11079;51.092;3.458;2022-12-18T05:22:13;54.50;;;28.53;;
21833;SDS011;11079;51.092;3.458;2022-12-18T05:24:38;58.83;;;30.57;;
21833;SDS011;11079;51.092;3.458;2022-12-18T05:27:04;56.60;;;30.03;;
21833;SDS011;11079;51.092;3.458;2022-12-18T05:29:30;61.87;;;32.00;;
21833;SDS011;11079;51.092;3.458;2022-12-18T05:31:55;61.23;;;29.63;;
21833;SDS011;11079;51.092;3.458;2022-12-18T05:34:21;59.33;;;30.77;;
21833;SDS011;11079;51.092;3.458;2022-12-18T05:36:46;59.30;;;28.87;;
21833;SDS011;11079;51.092;3.458;2022-12-18T05:39:12;58.23;;;28.37;;
21833;SDS011;11079;51.092;3.458;2022-12-18T05:41:38;51.43;;;27.57;;
21833;SDS011;11079;51.092;3.458;2022-12-18T05:44:03;59.10;;;29.30;;
21833;SDS011;11079;51.092;3.458;2022-12-18T05:46:29;62.43;;;29.73;;
21833;SDS011;11079;51.092;3.458;2022-12-18T05:48:58;59.87;;;29.57;;
21833;SDS011;11079;51.092;3.458;2022-12-18T05:51:26;57.17;;;28.43;;
21833;SDS011;11079;51.092;3.458;2022-12-18T05:53:51;53.03;;;29.20;;
21833;SDS011;11079;51.092;3.458;2022-12-18T05:56:18;55.77;;;28.20;;
21833;SDS011;11079;51.092;3.458;2022-12-18T05:58:50;57.27;;;29.43;;
21833;SDS011;11079;51.092;3.458;2022-12-18T06:01:19;49.93;;;27.80;;
21833;SDS011;11079;51.092;3.458;2022-12-18T06:03:47;54.00;;;27.73;;
21833;SDS011;11079;51.092;3.458;2022-12-18T06:06:23;56.27;;;27.77;;
21833;SDS011;11079;51.092;3.458;2022-12-18T06:08:50;50.97;;;28.03;;
21833;SDS011;11079;51.092;3.458;2022-12-18T06:11:17;53.00;;;27.37;;
21833;SDS011;11079;51.092;3.458;2022-12-18T06:13:45;59.47;;;30.10;;
21833;SDS011;11079;51.092;3.458;2022-12-18T06:16:11;51.83;;;26.53;;
21833;SDS011;11079;51.092;3.458;2022-12-18T06:18:37;53.33;;;28.20;;
21833;SDS011;11079;51.092;3.458;2022-12-18T06:21:03;54.07;;;27.33;;
21833;SDS011;11079;51.092;3.458;2022-12-18T06:23:29;54.37;;;28.40;;
21833;SDS011;11079;51.092;3.458;2022-12-18T06:25:54;50.20;;;26.27;;
21833;SDS011;11079;51.092;3.458;2022-12-18T06:28:20;53.70;;;26.97;;
21833;SDS011;11079;51.092;3.458;2022-12-18T06:30:46;54.90;;;27.93;;
21833;SDS011;11079;51.092;3.458;2022-12-18T06:33:13;52.33;;;27.57;;
21833;SDS011;11079;51.092;3.458;2022-12-18T06:35:40;50.17;;;26.80;;
21833;SDS011;11079;51.092;3.458;2022-12-18T06:38:05;50.97;;;26.93;;
21833;SDS011;11079;51.092;3.458;2022-12-18T06:40:31;53.67;;;24.60;;
21833;SDS011;11079;51.092;3.458;2022-12-18T06:42:57;46.77;;;24.77;;
21833;SDS011;11079;51.092;3.458;2022-12-18T06:45:23;51.63;;;25.93;;
21833;SDS011;11079;51.092;3.458;2022-12-18T06:47:49;50.10;;;26.10;;
21833;SDS011;11079;51.092;3.458;2022-12-18T06:50:14;48.40;;;25.30;;
21833;SDS011;11079;51.092;3.458;2022-12-18T06:52:40;50.80;;;25.67;;
21833;SDS011;11079;51.092;3.458;2022-12-18T06:55:07;51.30;;;24.70;;
21833;SDS011;11079;51.092;3.458;2022-12-18T06:57:33;43.30;;;24.10;;
21833;SDS011;11079;51.092;3.458;2022-12-18T06:59:59;42.87;;;25.03;;
21833;SDS011;11079;51.092;3.458;2022-12-18T07:02:25;51.90;;;25.97;;
21833;SDS011;11079;51.092;3.458;2022-12-18T07:04:50;50.50;;;25.27;;
21833;SDS011;11079;51.092;3.458;2022-12-18T07:07:16;48.07;;;23.93;;
21833;SDS011;11079;51.092;3.458;2022-12-18T07:09:42;41.63;;;22.73;;
21833;SDS011;11079;51.092;3.458;2022-12-18T07:12:07;44.43;;;23.37;;
21833;SDS011;11079;51.092;3.458;2022-12-18T07:14:34;42.87;;;24.27;;
21833;SDS011;11079;51.092;3.458;2022-12-18T07:16:59;39.23;;;22.00;;
21833;SDS011;11079;51.092;3.458;2022-12-18T07:19:25;41.63;;;22.70;;
21833;SDS011;11079;51.092;3.458;2022-12-18T07:21:51;36.93;;;22.87;;
21833;SDS011;11079;51.092;3.458;2022-12-18T07:24:16;34.57;;;21.27;;
21833;SDS011;11079;51.092;3.458;2022-12-18T07:26:42;34.70;;;21.00;;
21833;SDS011;11079;51.092;3.458;2022-12-18T07:29:10;42.10;;;21.37;;
21833;SDS011;11079;51.092;3.458;2022-12-18T07:31:35;39.80;;;21.43;;
21833;SDS011;11079;51.092;3.458;2022-12-18T07:34:01;40.67;;;21.40;;
21833;SDS011;11079;51.092;3.458;2022-12-18T07:36:27;37.70;;;21.00;;
21833;SDS011;11079;51.092;3.458;2022-12-18T07:38:53;35.67;;;20.40;;
21833;SDS011;11079;51.092;3.458;2022-12-18T07:41:18;37.17;;;19.73;;
21833;SDS011;11079;51.092;3.458;2022-12-18T07:43:45;38.67;;;21.23;;
21833;SDS011;11079;51.092;3.458;2022-12-18T07:46:11;34.63;;;19.90;;
21833;SDS011;11079;51.092;3.458;2022-12-18T07:48:40;40.63;;;20.17;;
21833;SDS011;11079;51.092;3.458;2022-12-18T07:51:07;37.67;;;19.30;;
21833;SDS011;11079;51.092;3.458;2022-12-18T07:53:34;34.23;;;18.73;;
21833;SDS011;11079;51.092;3.458;2022-12-18T07:56:01;36.70;;;18.23;;
21833;SDS011;11079;51.092;3.458;2022-12-18T07:58:30;34.53;;;18.87;;
21833;SDS011;11079;51.092;3.458;2022-12-18T08:01:03;33.13;;;18.47;;
21833;SDS011;11079;51.092;3.458;2022-12-18T08:03:33;36.83;;;18.83;;
21833;SDS011;11079;51.092;3.458;2022-12-18T08:06:02;33.63;;;19.33;;
21833;SDS011;11079;51.092;3.458;2022-12-18T08:08:29;33.40;;;18.23;;
21833;SDS011;11079;51.092;3.458;2022-12-18T08:10:56;32.10;;;17.83;;
21833;SDS011;11079;51.092;3.458;2022-12-18T08:13:22;29.80;;;19.03;;
21833;SDS011;11079;51.092;3.458;2022-12-18T08:15:58;33.03;;;19.07;;
21833;SDS011;11079;51.092;3.458;2022-12-18T08:18:29;29.57;;;19.47;;
21833;SDS011;11079;51.092;3.458;2022-12-18T08:20:56;30.60;;;17.83;;
21833;SDS011;11079;51.092;3.458;2022-12-18T08:23:22;29.40;;;15.90;;
21833;SDS011;11079;51.092;3.458;2022-12-18T08:25:48;30.20;;;16.87;;
21833;SDS011;11079;51.092;3.458;2022-12-18T08:28:13;29.77;;;17.07;;
21833;SDS011;11079;51.092;3.458;2022-12-18T08:30:39;28.60;;;15.67;;
21833;SDS011;11079;51.092;3.458;2022-12-18T08:33:04;28.73;;;15.37;;
21833;SDS011;11079;51.092;3.458;2022-12-18T08:35:30;26.17;;;14.83;;
21833;SDS011;11079;51.092;3.458;2022-12-18T08:38:00;25.13;;;15.23;;
21833;SDS011;11079;51.092;3.458;2022-12-18T08:40:25;26.67;;;14.50;;
21833;SDS011;11079;51.092;3.458;2022-12-18T08:42:51;23.13;;;13.60;;
21833;SDS011;11079;51.092;3.458;2022-12-18T08:45:35;24.30;;;14.00;;
21833;SDS011;11079;51.092;3.458;2022-12-18T08:48:00;24.30;;;15.77;;
21833;SDS011;11079;51.092;3.458;2022-12-18T08:50:26;24.00;;;13.73;;
21833;SDS011;11079;51.092;3.458;2022-12-18T08:52:51;23.47;;;14.00;;
21833;SDS011;11079;51.092;3.458;2022-12-18T08:55:17;23.33;;;13.43;;
21833;SDS011;11079;51.092;3.458;2022-12-18T08:57:43;21.00;;;13.57;;
21833;SDS011;11079;51.092;3.458;2022-12-18T09:00:12;20.47;;;13.43;;
21833;SDS011;11079;51.092;3.458;2022-12-18T09:02:38;20.87;;;13.47;;
21833;SDS011;11079;51.092;3.458;2022-12-18T09:05:04;20.77;;;14.03;;
21833;SDS011;11079;51.092;3.458;2022-12-18T09:07:31;22.17;;;13.13;;
21833;SDS011;11079;51.092;3.458;2022-12-18T09:09:56;22.27;;;12.83;;
21833;SDS011;11079;51.092;3.458;2022-12-18T09:12:22;19.07;;;13.30;;
21833;SDS011;11079;51.092;3.458;2022-12-18T09:14:48;20.63;;;13.30;;
21833;SDS011;11079;51.092;3.458;2022-12-18T09:17:13;23.13;;;13.50;;
21833;SDS011;11079;51.092;3.458;2022-12-18T09:19:39;25.83;;;13.67;;
21833;SDS011;11079;51.092;3.458;2022-12-18T09:22:05;21.93;;;13.27;;
21833;SDS011;11079;51.092;3.458;2022-12-18T09:24:30;25.10;;;14.20;;
21833;SDS011;11079;51.092;3.458;2022-12-18T09:26:56;22.50;;;14.07;;
21833;SDS011;11079;51.092;3.458;2022-12-18T09:29:21;24.57;;;14.47;;
21833;SDS011;11079;51.092;3.458;2022-12-18T09:31:47;22.73;;;13.63;;
21833;SDS011;11079;51.092;3.458;2022-12-18T09:34:14;20.60;;;13.63;;
21833;SDS011;11079;51.092;3.458;2022-12-18T09:36:40;27.67;;;15.00;;
21833;SDS011;11079;51.092;3.458;2022-12-18T09:39:05;23.23;;;15.30;;
21833;SDS011;11079;51.092;3.458;2022-12-18T09:41:39;25.60;;;14.07;;
21833;SDS011;11079;51.092;3.458;2022-12-18T09:46:45;23.73;;;14.97;;
21833;SDS011;11079;51.092;3.458;2022-12-18T09:49:30;22.50;;;13.97;;
21833;SDS011;11079;51.092;3.458;2022-12-18T09:52:02;22.17;;;13.63;;
21833;SDS011;11079;51.092;3.458;2022-12-18T09:54:37;20.27;;;13.90;;
21833;SDS011;11079;51.092;3.458;2022-12-18T09:57:05;23.57;;;14.13;;
21833;SDS011;11079;51.092;3.458;2022-12-18T09:59:32;18.50;;;13.17;;
21833;SDS011;11079;51.092;3.458;2022-12-18T10:02:10;20.27;;;13.30;;
21833;SDS011;11079;51.092;3.458;2022-12-18T10:04:48;22.40;;;13.40;;
21833;SDS011;11079;51.092;3.458;2022-12-18T10:07:29;22.93;;;13.93;;
21833;SDS011;11079;51.092;3.458;2022-12-18T10:10:13;21.33;;;13.53;;
21833;SDS011;11079;51.092;3.458;2022-12-18T10:12:57;24.57;;;13.57;;
21833;SDS011;11079;51.092;3.458;2022-12-18T10:15:40;22.13;;;14.57;;
21833;SDS011;11079;51.092;3.458;2022-12-18T10:24:18;22.03;;;13.33;;
21833;SDS011;11079;51.092;3.458;2022-12-18T10:26:52;18.37;;;11.43;;
21833;SDS011;11079;51.092;3.458;2022-12-18T10:29:21;23.83;;;13.33;;
21833;SDS011;11079;51.092;3.458;2022-12-18T10:31:47;20.90;;;13.07;;
21833;SDS011;11079;51.092;3.458;2022-12-18T10:34:13;20.60;;;13.23;;
21833;SDS011;11079;51.092;3.458;2022-12-18T10:36:38;22.53;;;13.20;;
21833;SDS011;11079;51.092;3.458;2022-12-18T10:39:15;23.37;;;14.43;;
21833;SDS011;11079;51.092;3.458;2022-12-18T10:41:41;23.03;;;15.03;;
21833;SDS011;11079;51.092;3.458;2022-12-18T10:44:17;27.83;;;14.80;;
21833;SDS011;11079;51.092;3.458;2022-12-18T10:46:51;24.13;;;13.67;;
21833;SDS011;11079;51.092;3.458;2022-12-18T10:49:23;18.87;;;13.13;;
21833;SDS011;11079;51.092;3.458;2022-12-18T10:51:52;23.47;;;13.23;;
21833;SDS011;11079;51.092;3.458;2022-12-18T10:54:36;20.70;;;12.47;;
21833;SDS011;11079;51.092;3.458;2022-12-18T11:02:51;24.33;;;13.53;;
21833;SDS011;11079;51.092;3.458;2022-12-18T11:07:53;24.80;;;14.87;;
21833;SDS011;11079;51.092;3.458;2022-12-18T11:10:20;24.47;;;15.10;;
21833;SDS011;11079;51.092;3.458;2022-12-18T11:12:50;21.93;;;13.43;;
21833;SDS011;11079;51.092;3.458;2022-12-18T11:15:26;21.33;;;14.23;;
21833;SDS011;11079;51.092;3.458;2022-12-18T11:17:54;22.43;;;14.87;;
21833;SDS011;11079;51.092;3.458;2022-12-18T11:20:26;20.00;;;13.73;;
21833;SDS011;11079;51.092;3.458;2022-12-18T11:23:00;25.97;;;14.50;;
21833;SDS011;11079;51.092;3.458;2022-12-18T11:25:28;21.93;;;13.87;;
21833;SDS011;11079;51.092;3.458;2022-12-18T11:27:56;30.53;;;22.20;;
21833;SDS011;11079;51.092;3.458;2022-12-18T11:30:26;26.97;;;15.67;;
21833;SDS011;11079;51.092;3.458;2022-12-18T11:33:00;21.47;;;14.90;;
21833;SDS011;11079;51.092;3.458;2022-12-18T11:35:42;22.40;;;14.67;;
21833;SDS011;11079;51.092;3.458;2022-12-18T11:40:38;23.33;;;14.20;;
21833;SDS011;11079;51.092;3.458;2022-12-18T11:43:12;22.10;;;14.23;;
21833;SDS011;11079;51.092;3.458;2022-12-18T11:48:39;25.03;;;15.27;;
21833;SDS011;11079;51.092;3.458;2022-12-18T11:51:19;22.80;;;14.47;;
21833;SDS011;11079;51.092;3.458;2022-12-18T11:53:53;21.80;;;13.97;;
21833;SDS011;11079;51.092;3.458;2022-12-18T11:56:26;26.00;;;14.80;;
21833;SDS011;11079;51.092;3.458;2022-12-18T11:59:21;24.90;;;14.97;;
21833;SDS011;11079;51.092;3.458;2022-12-18T12:19:29;31.97;;;18.70;;
21833;SDS011;11079;51.092;3.458;2022-12-18T12:25:11;27.47;;;17.23;;
21833;SDS011;11079;51.092;3.458;2022-12-18T12:27:50;28.10;;;17.60;;
21833;SDS011;11079;51.092;3.458;2022-12-18T12:33:43;27.60;;;17.77;;
21833;SDS011;11079;51.092;3.458;2022-12-18T12:39:14;26.53;;;16.67;;
21833;SDS011;11079;51.092;3.458;2022-12-18T12:41:43;27.83;;;17.17;;
21833;SDS011;11079;51.092;3.458;2022-12-18T12:44:43;27.10;;;17.13;;
21833;SDS011;11079;51.092;3.458;2022-12-18T12:47:14;27.67;;;16.83;;
21833;SDS011;11079;51.092;3.458;2022-12-18T12:49:46;29.33;;;16.53;;
21833;SDS011;11079;51.092;3.458;2022-12-18T12:52:14;30.60;;;18.40;;
21833;SDS011;11079;51.092;3.458;2022-12-18T12:54:53;30.07;;;17.37;;
21833;SDS011;11079;51.092;3.458;2022-12-18T12:57:21;31.93;;;18.87;;
21833;SDS011;11079;51.092;3.458;2022-12-18T13:07:53;30.87;;;19.10;;
21833;SDS011;11079;51.092;3.458;2022-12-18T13:10:24;38.30;;;20.00;;
21833;SDS011;11079;51.092;3.458;2022-12-18T13:20:33;36.73;;;19.33;;
21833;SDS011;11079;51.092;3.458;2022-12-18T13:23:01;35.17;;;18.97;;
21833;SDS011;11079;51.092;3.458;2022-12-18T13:25:46;34.93;;;19.50;;
21833;SDS011;11079;51.092;3.458;2022-12-18T13:33:30;35.90;;;20.73;;
21833;SDS011;11079;51.092;3.458;2022-12-18T13:41:46;32.90;;;19.87;;
21833;SDS011;11079;51.092;3.458;2022-12-18T13:44:32;36.10;;;21.27;;
21833;SDS011;11079;51.092;3.458;2022-12-18T13:47:24;37.33;;;20.70;;
21833;SDS011;11079;51.092;3.458;2022-12-18T13:49:58;41.87;;;21.03;;
21833;SDS011;11079;51.092;3.458;2022-12-18T13:52:28;41.10;;;21.93;;
21833;SDS011;11079;51.092;3.458;2022-12-18T13:54:59;42.37;;;23.37;;
21833;SDS011;11079;51.092;3.458;2022-12-18T13:59:56;41.13;;;21.80;;
21833;SDS011;11079;51.092;3.458;2022-12-18T14:02:39;39.33;;;22.00;;
21833;SDS011;11079;51.092;3.458;2022-12-18T14:05:21;37.77;;;20.03;;
21833;SDS011;11079;51.092;3.458;2022-12-18T14:07:46;44.33;;;23.97;;
21833;SDS011;11079;51.092;3.458;2022-12-18T14:10:24;36.17;;;20.27;;
21833;SDS011;11079;51.092;3.458;2022-12-18T14:12:50;42.07;;;22.27;;
21833;SDS011;11079;51.092;3.458;2022-12-18T14:15:42;40.50;;;20.13;;
21833;SDS011;11079;51.092;3.458;2022-12-18T14:18:43;47.50;;;24.20;;
21833;SDS011;11079;51.092;3.458;2022-12-18T14:21:14;44.80;;;23.90;;
21833;SDS011;11079;51.092;3.458;2022-12-18T14:23:46;42.60;;;23.73;;
21833;SDS011;11079;51.092;3.458;2022-12-18T14:26:30;41.10;;;22.10;;
21833;SDS011;11079;51.092;3.458;2022-12-18T14:28:58;40.07;;;22.10;;
21833;SDS011;11079;51.092;3.458;2022-12-18T14:31:27;38.53;;;21.10;;
21833;SDS011;11079;51.092;3.458;2022-12-18T14:33:56;39.17;;;22.53;;
21833;SDS011;11079;51.092;3.458;2022-12-18T14:36:26;36.47;;;21.40;;
21833;SDS011;11079;51.092;3.458;2022-12-18T14:38:54;36.43;;;22.30;;
21833;SDS011;11079;51.092;3.458;2022-12-18T14:41:22;41.33;;;21.57;;
21833;SDS011;11079;51.092;3.458;2022-12-18T14:43:49;39.20;;;20.33;;
21833;SDS011;11079;51.092;3.458;2022-12-18T14:49:32;35.40;;;19.63;;
21833;SDS011;11079;51.092;3.458;2022-12-18T14:52:03;37.43;;;19.83;;
21833;SDS011;11079;51.092;3.458;2022-12-18T14:54:47;42.10;;;22.23;;
21833;SDS011;11079;51.092;3.458;2022-12-18T14:57:21;40.87;;;19.83;;
21833;SDS011;11079;51.092;3.458;2022-12-18T14:59:49;41.53;;;21.07;;
21833;SDS011;11079;51.092;3.458;2022-12-18T15:02:23;34.83;;;19.57;;
21833;SDS011;11079;51.092;3.458;2022-12-18T15:05:04;37.43;;;23.10;;
21833;SDS011;11079;51.092;3.458;2022-12-18T15:07:42;33.30;;;18.83;;
21833;SDS011;11079;51.092;3.458;2022-12-18T15:10:16;33.20;;;19.47;;
21833;SDS011;11079;51.092;3.458;2022-12-18T15:12:48;39.57;;;21.27;;
21833;SDS011;11079;51.092;3.458;2022-12-18T15:18:04;30.83;;;18.37;;
21833;SDS011;11079;51.092;3.458;2022-12-18T15:20:50;34.17;;;19.93;;
21833;SDS011;11079;51.092;3.458;2022-12-18T15:23:38;35.10;;;19.67;;
21833;SDS011;11079;51.092;3.458;2022-12-18T15:26:21;35.67;;;20.17;;
21833;SDS011;11079;51.092;3.458;2022-12-18T15:28:51;42.33;;;20.37;;
21833;SDS011;11079;51.092;3.458;2022-12-18T15:31:32;38.43;;;21.33;;
21833;SDS011;11079;51.092;3.458;2022-12-18T15:34:10;43.37;;;22.13;;
21833;SDS011;11079;51.092;3.458;2022-12-18T15:36:45;45.07;;;25.37;;
21833;SDS011;11079;51.092;3.458;2022-12-18T15:39:13;39.23;;;23.03;;
21833;SDS011;11079;51.092;3.458;2022-12-18T15:41:40;39.20;;;21.17;;
21833;SDS011;11079;51.092;3.458;2022-12-18T15:44:27;41.63;;;23.10;;
21833;SDS011;11079;51.092;3.458;2022-12-18T15:46:53;39.77;;;21.97;;
21833;SDS011;11079;51.092;3.458;2022-12-18T15:49:20;29.77;;;17.03;;
21833;SDS011;11079;51.092;3.458;2022-12-18T15:51:47;38.80;;;20.87;;
21833;SDS011;11079;51.092;3.458;2022-12-18T15:54:19;39.63;;;21.97;;
21833;SDS011;11079;51.092;3.458;2022-12-18T15:57:05;39.30;;;21.47;;
21833;SDS011;11079;51.092;3.458;2022-12-18T15:59:48;35.63;;;19.43;;
21833;SDS011;11079;51.092;3.458;2022-12-18T16:02:18;34.13;;;18.60;;
21833;SDS011;11079;51.092;3.458;2022-12-18T16:04:45;39.93;;;22.23;;
21833;SDS011;11079;51.092;3.458;2022-12-18T16:07:11;42.03;;;23.77;;
21833;SDS011;11079;51.092;3.458;2022-12-18T16:09:37;42.13;;;23.17;;
21833;SDS011;11079;51.092;3.458;2022-12-18T16:12:03;43.63;;;24.30;;
21833;SDS011;11079;51.092;3.458;2022-12-18T16:14:30;39.70;;;21.43;;
21833;SDS011;11079;51.092;3.458;2022-12-18T16:16:57;38.63;;;22.10;;
21833;SDS011;11079;51.092;3.458;2022-12-18T16:19:25;41.13;;;21.40;;
21833;SDS011;11079;51.092;3.458;2022-12-18T16:21:52;43.07;;;22.50;;
21833;SDS011;11079;51.092;3.458;2022-12-18T16:24:22;42.77;;;22.80;;
21833;SDS011;11079;51.092;3.458;2022-12-18T16:26:50;38.80;;;20.07;;
21833;SDS011;11079;51.092;3.458;2022-12-18T16:29:16;44.93;;;23.13;;